Time;durP1;ratioP1;P1;durP2;ratioP2;P2;SDS_P1;SDS_P2;PMS_P1;PMS_P2;Temp;Humidity;BMP_temperature;BMP_pressure;BME280_temperature;BME280_humidity;BME280_pressure;Samples;Min_cycle;Max_cycle;Signal;HPM_P1;HPM_P2
2021/09/26 00:02:26;;;;;;;25.95;17.98;;;;;;;12.08;100.00;97970.91;4919648;29;20044;-81
2021/09/26 00:04:53;;;;;;;26.42;18.33;;;;;;;12.05;100.00;97968.84;4930803;29;20040;-81
2021/09/26 00:07:19;;;;;;;31.55;18.42;;;;;;;12.09;100.00;97969.00;4902714;29;20505;-82
2021/09/26 00:09:46;;;;;;;29.67;18.13;;;;;;;12.10;100.00;97965.19;4922929;29;20052;-81
2021/09/26 00:12:12;;;;;;;29.83;18.10;;;;;;;12.06;100.00;97964.19;4923196;29;20152;-81
2021/09/26 00:14:39;;;;;;;29.05;18.38;;;;;;;12.04;100.00;97969.16;4922483;23;20139;-83
2021/09/26 00:17:05;;;;;;;26.85;17.73;;;;;;;12.08;100.00;97970.13;4898068;29;20062;-84
2021/09/26 00:19:32;;;;;;;23.88;16.30;;;;;;;12.01;100.00;97970.56;4919216;29;20043;-84
2021/09/26 00:21:59;;;;;;;23.67;16.83;;;;;;;11.96;100.00;97968.00;4899981;29;20461;-84
2021/09/26 00:24:25;;;;;;;24.65;15.95;;;;;;;11.92;100.00;97963.53;4893955;29;20041;-83
2021/09/26 00:26:52;;;;;;;22.77;16.23;;;;;;;11.92;100.00;97958.13;4882125;29;20509;-82
2021/09/26 00:29:18;;;;;;;24.02;16.48;;;;;;;11.90;100.00;97958.41;4900583;29;20052;-84
2021/09/26 00:31:45;;;;;;;27.15;17.50;;;;;;;11.83;100.00;97955.38;4893657;29;20075;-81
2021/09/26 00:34:12;;;;;;;26.73;16.33;;;;;;;11.79;100.00;97962.53;4885410;29;20416;-83
2021/09/26 00:36:39;;;;;;;21.63;16.05;;;;;;;11.77;100.00;97957.41;4892332;29;20045;-84
2021/09/26 00:39:06;;;;;;;25.83;17.70;;;;;;;11.74;100.00;97965.41;4893902;29;20045;-83
2021/09/26 00:41:32;;;;;;;24.63;16.73;;;;;;;11.67;100.00;97948.72;4877273;29;20044;-83
2021/09/26 00:43:59;;;;;;;25.17;17.30;;;;;;;11.69;100.00;97958.19;4876550;29;20537;-85
2021/09/26 00:46:26;;;;;;;27.00;16.35;;;;;;;11.64;100.00;97950.16;4893582;29;20105;-83
2021/09/26 00:48:53;;;;;;;27.15;19.02;;;;;;;11.53;100.00;97946.16;4895944;29;20056;-83
2021/09/26 00:51:19;;;;;;;27.13;17.63;;;;;;;11.52;100.00;97939.13;4898788;29;20048;-82
2021/09/26 00:53:46;;;;;;;29.77;19.08;;;;;;;11.52;100.00;97941.84;4891383;29;20075;-83
2021/09/26 00:56:13;;;;;;;26.45;17.88;;;;;;;11.55;100.00;97946.63;4876293;29;20071;-83
2021/09/26 00:58:40;;;;;;;24.65;16.92;;;;;;;11.53;100.00;97942.63;4893979;29;20045;-84
2021/09/26 01:01:07;;;;;;;23.77;16.98;;;;;;;11.56;100.00;97948.22;4876883;29;20678;-83
2021/09/26 01:03:34;;;;;;;26.83;16.60;;;;;;;11.57;100.00;97938.97;4891058;29;20048;-83
2021/09/26 01:06:35;;;;;;;32.97;17.90;;;;;;;11.61;100.00;97948.09;4892639;29;20426;-83
2021/09/26 01:09:08;;;;;;;28.27;17.23;;;;;;;11.59;100.00;97952.22;4887267;29;20100;-83
2021/09/26 01:12:14;;;;;;;28.30;17.92;;;;;;;11.56;100.00;97942.00;4897162;29;20044;-81
2021/09/26 01:15:26;;;;;;;28.67;18.77;;;;;;;11.58;100.00;97946.00;4906880;29;20108;-84
2021/09/26 01:18:04;;;;;;;27.42;19.10;;;;;;;11.62;100.00;97948.88;4873040;29;20149;-83
2021/09/26 01:20:45;;;;;;;31.38;17.48;;;;;;;11.63;100.00;97962.13;4891498;29;20076;-83
2021/09/26 01:23:21;;;;;;;26.45;18.45;;;;;;;11.63;100.00;97947.78;4897753;29;20143;-83
2021/09/26 01:26:08;;;;;;;32.42;21.02;;;;;;;11.66;100.00;97958.81;4892829;29;20124;-83
2021/09/26 01:28:53;;;;;;;29.65;18.52;;;;;;;11.63;100.00;97964.84;4868004;29;20079;-83
2021/09/26 01:31:40;;;;;;;27.90;18.87;;;;;;;11.48;100.00;97962.56;4892865;29;20056;-82
2021/09/26 01:34:41;;;;;;;28.45;18.75;;;;;;;11.59;100.00;97953.00;4892253;29;20072;-82
2021/09/26 01:37:20;;;;;;;28.30;18.92;;;;;;;11.57;100.00;97963.38;4875051;29;20136;-83
2021/09/26 01:39:55;;;;;;;30.70;20.08;;;;;;;11.58;100.00;97956.06;4875159;29;20044;-83
2021/09/26 01:42:25;;;;;;;29.38;20.23;;;;;;;11.55;100.00;97964.81;4892042;29;20044;-83
2021/09/26 01:44:55;;;;;;;30.25;20.95;;;;;;;11.54;100.00;97969.44;4875292;29;20060;-82
2021/09/26 01:47:46;;;;;;;26.85;19.10;;;;;;;11.58;100.00;97965.00;4890614;29;20162;-81
2021/09/26 01:50:14;;;;;;;30.33;18.40;;;;;;;11.54;100.00;97960.47;4875543;29;20100;-82
2021/09/26 01:52:47;;;;;;;30.98;18.90;;;;;;;11.46;100.00;97956.63;4890688;29;20045;-83
2021/09/26 01:55:14;;;;;;;27.33;17.52;;;;;;;11.38;100.00;97951.97;4866486;29;20055;-83
2021/09/26 01:57:46;;;;;;;31.70;18.98;;;;;;;11.36;100.00;97964.22;4897965;29;20047;-82
2021/09/26 02:00:13;;;;;;;25.00;18.15;;;;;;;11.21;100.00;97968.16;4907992;29;20531;-80
2021/09/26 02:02:42;;;;;;;24.33;17.95;;;;;;;11.24;100.00;97960.22;4906857;29;20446;-82
2021/09/26 02:05:10;;;;;;;26.00;16.95;;;;;;;11.26;100.00;97960.69;4905170;29;20454;-81
2021/09/26 02:07:41;;;;;;;27.27;18.20;;;;;;;11.27;100.00;97964.19;4883035;29;20036;-83
2021/09/26 02:10:09;;;;;;;29.17;18.33;;;;;;;11.24;100.00;97975.66;4883186;29;20052;-83
2021/09/26 02:12:35;;;;;;;27.65;17.80;;;;;;;11.24;100.00;97984.59;4874655;29;20056;-81
2021/09/26 02:15:06;;;;;;;26.10;17.60;;;;;;;11.22;100.00;97983.31;4891390;29;20192;-83
2021/09/26 02:17:33;;;;;;;27.02;17.45;;;;;;;11.20;100.00;97977.41;4890041;29;20053;-80
2021/09/26 02:20:01;;;;;;;30.42;17.73;;;;;;;11.18;100.00;97980.41;4875303;29;20055;-82
2021/09/26 02:22:30;;;;;;;26.80;16.90;;;;;;;11.21;100.00;97993.34;4890845;29;20056;-83
2021/09/26 02:24:59;;;;;;;29.25;17.75;;;;;;;11.21;100.00;97981.69;4891463;29;20135;-82
2021/09/26 02:27:27;;;;;;;26.23;17.48;;;;;;;11.06;100.00;97980.19;4888186;29;20049;-83
2021/09/26 02:29:54;;;;;;;26.50;16.75;;;;;;;11.14;100.00;97990.28;4891497;29;20063;-83
2021/09/26 02:32:21;;;;;;;23.50;16.42;;;;;;;11.13;100.00;97985.97;4874290;29;20063;-81
2021/09/26 02:34:48;;;;;;;23.52;16.15;;;;;;;11.10;100.00;97983.06;4889655;29;20512;-82
2021/09/26 02:37:15;;;;;;;22.83;16.23;;;;;;;11.05;100.00;97986.69;4874679;29;20045;-82
2021/09/26 02:39:43;;;;;;;22.02;16.13;;;;;;;10.92;100.00;97982.16;4874189;29;20161;-82
2021/09/26 02:42:49;;;;;;;27.25;17.13;;;;;;;10.95;100.00;97986.94;4872912;29;20045;-81
2021/09/26 02:45:26;;;;;;;24.25;15.90;;;;;;;10.95;100.00;97980.72;4829972;29;20176;-82
2021/09/26 02:47:57;;;;;;;29.85;17.67;;;;;;;10.89;100.00;97985.47;4886450;29;20134;-83
2021/09/26 02:50:25;;;;;;;28.92;18.55;;;;;;;10.94;100.00;97987.28;4903725;29;20044;-82
2021/09/26 02:52:53;;;;;;;28.83;17.98;;;;;;;10.94;100.00;97985.34;4891194;29;20040;-83
2021/09/26 02:55:20;;;;;;;24.80;17.10;;;;;;;11.01;100.00;97982.22;4889770;29;20425;-81
2021/09/26 02:57:47;;;;;;;24.95;18.17;;;;;;;10.84;100.00;97982.09;4891366;29;20470;-83
2021/09/26 03:00:13;;;;;;;26.23;16.50;;;;;;;10.84;100.00;97972.06;4892519;29;20117;-81
2021/09/26 03:02:45;;;;;;;27.60;16.92;;;;;;;10.83;100.00;97981.31;4903319;29;20044;-83
2021/09/26 03:05:15;;;;;;;25.00;16.90;;;;;;;10.81;100.00;97969.97;4892299;29;20501;-82
2021/09/26 03:07:41;;;;;;;26.25;17.30;;;;;;;10.83;100.00;97978.59;4891695;29;20049;-84
2021/09/26 03:10:08;;;;;;;26.95;16.90;;;;;;;10.82;100.00;97970.75;4891524;29;20212;-83
2021/09/26 03:12:35;;;;;;;25.65;16.90;;;;;;;10.83;100.00;97970.47;4889092;29;20490;-82
2021/09/26 03:15:02;;;;;;;25.23;17.27;;;;;;;10.94;100.00;97977.22;4880036;29;20060;-84
2021/09/26 03:17:30;;;;;;;28.42;18.83;;;;;;;11.04;100.00;97968.06;4879329;29;20383;-82
2021/09/26 03:19:56;;;;;;;28.58;18.77;;;;;;;11.07;100.00;97962.81;4895372;29;20500;-83
2021/09/26 03:22:23;;;;;;;32.33;18.92;;;;;;;11.14;100.00;97967.78;4908653;29;20088;-84
2021/09/26 03:24:50;;;;;;;26.58;18.85;;;;;;;11.23;100.00;97966.72;4900692;29;20092;-83
2021/09/26 03:27:16;;;;;;;24.02;16.83;;;;;;;11.36;100.00;97969.66;4880117;29;20064;-83
2021/09/26 03:29:43;;;;;;;27.40;17.35;;;;;;;11.41;100.00;97967.59;4865876;29;20433;-82
2021/09/26 03:32:10;;;;;;;26.63;16.20;;;;;;;11.41;100.00;97958.69;4900154;29;20527;-83
2021/09/26 03:34:37;;;;;;;28.42;16.15;;;;;;;11.28;100.00;97958.47;4903418;29;20595;-82
2021/09/26 03:37:04;;;;;;;24.83;16.42;;;;;;;11.29;100.00;97961.97;4887313;29;20105;-82
2021/09/26 03:39:31;;;;;;;30.98;17.02;;;;;;;11.28;100.00;97966.59;4899121;29;20048;-83
2021/09/26 03:41:57;;;;;;;21.95;15.85;;;;;;;11.28;100.00;97965.78;4904607;29;20047;-84
2021/09/26 03:44:24;;;;;;;26.55;16.95;;;;;;;11.25;100.00;97959.06;4910944;29;20068;-83
2021/09/26 03:46:52;;;;;;;24.40;15.73;;;;;;;11.29;100.00;97959.25;4913345;29;20054;-82
2021/09/26 03:49:19;;;;;;;22.83;15.32;;;;;;;11.34;100.00;97959.13;4895774;29;20048;-83
2021/09/26 03:51:48;;;;;;;24.02;16.02;;;;;;;11.19;100.00;97948.69;4892119;29;20055;-81
2021/09/26 03:54:16;;;;;;;23.25;14.88;;;;;;;11.26;100.00;97960.69;4899090;29;20052;-82
2021/09/26 03:56:43;;;;;;;24.00;15.70;;;;;;;11.21;100.00;97968.16;4893267;29;20409;-82
2021/09/26 03:59:13;;;;;;;24.60;15.00;;;;;;;11.14;100.00;97965.91;4877821;29;20048;-83
2021/09/26 04:01:40;;;;;;;22.17;15.77;;;;;;;11.16;100.00;97963.66;4894551;29;20340;-83
2021/09/26 04:04:08;;;;;;;24.35;16.60;;;;;;;11.19;100.00;97973.88;4892385;29;20048;-82
2021/09/26 04:06:35;;;;;;;24.10;15.75;;;;;;;11.18;100.00;97964.16;4898971;29;20099;-81
2021/09/26 04:09:03;;;;;;;25.45;16.95;;;;;;;11.18;100.00;97969.56;4893714;29;20045;-83
2021/09/26 04:11:29;;;;;;;27.65;16.23;;;;;;;11.19;100.00;97973.09;4893906;29;20104;-83
2021/09/26 04:14:00;;;;;;;22.30;15.35;;;;;;;11.26;100.00;97965.31;4876034;29;20150;-82
2021/09/26 04:16:28;;;;;;;24.38;15.85;;;;;;;11.39;100.00;97969.03;4893412;29;20136;-82
2021/09/26 04:18:55;;;;;;;24.30;15.93;;;;;;;11.38;100.00;97965.50;4895706;29;20036;-81
2021/09/26 04:21:22;;;;;;;24.20;16.15;;;;;;;11.41;100.00;97961.41;4901790;29;20043;-83
2021/09/26 04:23:50;;;;;;;30.13;17.13;;;;;;;11.38;100.00;97962.81;4884042;29;20098;-83
2021/09/26 04:26:18;;;;;;;24.38;16.98;;;;;;;11.41;100.00;97959.47;4913177;29;20060;-83
2021/09/26 04:28:45;;;;;;;26.13;16.02;;;;;;;11.46;100.00;97964.75;4896316;29;20158;-83
2021/09/26 04:31:12;;;;;;;25.92;16.73;;;;;;;11.38;100.00;97953.91;4890024;29;20105;-81
2021/09/26 04:33:39;;;;;;;23.20;15.45;;;;;;;11.42;100.00;97944.81;4897129;29;20481;-83
2021/09/26 04:36:05;;;;;;;21.85;15.63;;;;;;;11.46;100.00;97948.50;4894732;29;20049;-81
2021/09/26 04:38:32;;;;;;;24.40;16.52;;;;;;;11.45;100.00;97946.09;4893568;29;20056;-82
2021/09/26 04:41:00;;;;;;;27.35;17.27;;;;;;;11.47;100.00;97946.59;4903855;29;20044;-82
2021/09/26 04:43:27;;;;;;;28.13;17.33;;;;;;;11.47;100.00;97938.44;4911092;29;20138;-81
2021/09/26 04:45:53;;;;;;;27.90;16.77;;;;;;;11.42;100.00;97933.16;4913274;29;20052;-83
2021/09/26 04:48:20;;;;;;;29.23;18.15;;;;;;;11.45;100.00;97940.69;4900875;29;20082;-81
2021/09/26 04:50:47;;;;;;;23.45;16.52;;;;;;;11.45;100.00;97941.50;4886622;29;20056;-82
2021/09/26 04:53:14;;;;;;;26.25;16.98;;;;;;;11.47;100.00;97943.88;4879368;29;20111;-81
2021/09/26 04:55:40;;;;;;;27.20;17.77;;;;;;;11.48;100.00;97951.72;4876937;29;20120;-81
2021/09/26 04:58:10;;;;;;;27.80;17.98;;;;;;;11.48;100.00;97949.00;4879517;29;20044;-85
2021/09/26 05:00:37;;;;;;;23.92;15.90;;;;;;;11.45;100.00;97944.19;4893789;29;20055;-82
2021/09/26 05:03:04;;;;;;;28.45;18.17;;;;;;;11.51;100.00;97948.34;4877517;29;20060;-80
2021/09/26 05:05:35;;;;;;;29.33;17.80;;;;;;;11.53;100.00;97948.88;4892208;29;20492;-80
2021/09/26 05:08:01;;;;;;;27.48;17.65;;;;;;;11.58;100.00;97956.06;4901290;29;20049;-84
2021/09/26 05:10:29;;;;;;;24.75;16.85;;;;;;;11.57;100.00;97960.66;4903929;29;20658;-82
2021/09/26 05:12:56;;;;;;;28.95;15.82;;;;;;;11.61;100.00;97963.56;4902920;29;20040;-82
2021/09/26 05:15:22;;;;;;;30.60;18.23;;;;;;;11.62;100.00;97957.00;4892506;29;20139;-80
2021/09/26 05:17:49;;;;;;;32.05;19.55;;;;;;;11.70;100.00;97959.00;4891178;29;20094;-81
2021/09/26 05:20:16;;;;;;;31.98;19.15;;;;;;;11.77;100.00;97943.06;4884265;29;20139;-83
2021/09/26 05:22:46;;;;;;;29.63;19.20;;;;;;;11.85;100.00;97951.22;4876136;29;20052;-83
2021/09/26 05:25:13;;;;;;;32.15;17.85;;;;;;;11.87;100.00;97929.22;4892689;29;20071;-81
2021/09/26 05:27:40;;;;;;;23.17;16.60;;;;;;;11.82;100.00;97945.63;4893769;29;20079;-82
2021/09/26 05:30:07;;;;;;;26.77;16.58;;;;;;;11.87;100.00;97942.78;4875599;29;20055;-82
2021/09/26 05:32:35;;;;;;;28.50;17.77;;;;;;;11.97;100.00;97945.19;4907862;29;20067;-83
2021/09/26 05:35:03;;;;;;;27.25;18.77;;;;;;;12.11;100.00;97947.75;4876541;29;20103;-82
2021/09/26 05:37:29;;;;;;;26.80;17.67;;;;;;;12.23;100.00;97942.53;4893715;29;20060;-82
2021/09/26 05:39:56;;;;;;;26.80;18.20;;;;;;;12.42;100.00;97935.66;4908196;29;20274;-82
2021/09/26 05:42:23;;;;;;;25.05;17.42;;;;;;;12.57;100.00;97936.31;4895816;29;20116;-82
2021/09/26 05:44:49;;;;;;;32.83;17.70;;;;;;;12.69;100.00;97936.47;4894654;29;20091;-82
2021/09/26 05:47:16;;;;;;;31.23;20.00;;;;;;;12.77;100.00;97930.22;4897296;29;20092;-83
2021/09/26 05:49:43;;;;;;;27.25;18.58;;;;;;;12.83;100.00;97927.00;4879369;29;20048;-82
2021/09/26 05:52:10;;;;;;;28.58;19.00;;;;;;;12.94;100.00;97916.59;4893526;29;20056;-81
2021/09/26 05:54:38;;;;;;;27.38;17.63;;;;;;;13.04;100.00;97917.06;4895350;29;20074;-81
2021/09/26 05:57:06;;;;;;;26.67;17.70;;;;;;;13.11;100.00;97917.38;4903197;29;20055;-82
2021/09/26 05:59:38;;;;;;;24.23;16.38;;;;;;;13.13;100.00;97908.94;4903149;29;20095;-82
2021/09/26 06:02:07;;;;;;;25.52;17.63;;;;;;;13.28;100.00;97915.75;4894243;29;20051;-81
2021/09/26 06:04:34;;;;;;;29.85;18.77;;;;;;;13.42;100.00;97916.34;4910183;29;20063;-83
2021/09/26 06:07:01;;;;;;;31.42;20.33;;;;;;;13.58;100.00;97918.19;4911123;29;20048;-82
2021/09/26 06:09:28;;;;;;;28.17;20.25;;;;;;;13.73;100.00;97919.53;4894371;29;20048;-84
2021/09/26 06:11:55;;;;;;;27.85;17.42;;;;;;;13.90;100.00;97919.47;4928993;23;20068;-83
2021/09/26 06:14:22;;;;;;;26.95;18.58;;;;;;;14.04;100.00;97913.78;4899023;29;20064;-83
2021/09/26 06:16:49;;;;;;;24.25;17.13;;;;;;;14.17;100.00;97904.53;4898577;29;20517;-83
2021/09/26 06:19:18;;;;;;;25.75;18.50;;;;;;;14.30;100.00;97906.22;4882571;29;20135;-83
2021/09/26 06:21:48;;;;;;;21.05;15.73;;;;;;;14.31;100.00;97905.94;4882998;29;20202;-82
2021/09/26 06:24:15;;;;;;;23.17;16.05;;;;;;;14.45;100.00;97908.38;4902330;29;20048;-82
2021/09/26 06:26:42;;;;;;;24.73;15.65;;;;;;;14.59;100.00;97919.78;4890844;23;20057;-79
2021/09/26 06:29:09;;;;;;;22.73;15.10;;;;;;;14.68;100.00;97915.06;4894086;29;20615;-80
2021/09/26 06:31:36;;;;;;;21.77;14.45;;;;;;;14.81;100.00;97930.31;4896473;29;20040;-79
2021/09/26 06:34:04;;;;;;;21.48;14.23;;;;;;;14.97;100.00;97928.56;4894116;29;20055;-78
2021/09/26 06:36:30;;;;;;;22.42;13.93;;;;;;;15.07;100.00;97930.09;4876248;29;20057;-79
2021/09/26 06:38:57;;;;;;;21.08;14.10;;;;;;;15.09;100.00;97919.66;4880215;29;20104;-79
2021/09/26 06:41:24;;;;;;;24.38;15.02;;;;;;;15.29;100.00;97907.88;4893946;29;20063;-79
2021/09/26 06:43:51;;;;;;;19.30;12.85;;;;;;;15.36;100.00;97921.72;4899087;29;20056;-78
2021/09/26 06:46:19;;;;;;;16.25;11.50;;;;;;;15.38;100.00;97929.59;4877395;29;20388;-79
2021/09/26 06:48:45;;;;;;;17.98;12.00;;;;;;;15.51;100.00;97925.78;4892509;29;20057;-78
2021/09/26 06:51:13;;;;;;;20.67;12.75;;;;;;;15.56;100.00;97922.84;4881927;29;20044;-78
2021/09/26 06:53:39;;;;;;;20.02;12.13;;;;;;;15.68;100.00;97928.28;4898220;29;20056;-79
2021/09/26 06:56:06;;;;;;;17.35;12.32;;;;;;;15.52;100.00;97927.34;4897684;29;20502;-77
2021/09/26 06:58:33;;;;;;;20.00;11.25;;;;;;;15.65;100.00;97934.41;4895239;29;20163;-77
2021/09/26 07:01:00;;;;;;;19.00;13.52;;;;;;;15.71;100.00;97930.34;4878559;29;20049;-77
2021/09/26 07:03:27;;;;;;;16.27;11.63;;;;;;;15.84;100.00;97934.66;4878741;29;20125;-77
2021/09/26 07:05:54;;;;;;;17.45;11.75;;;;;;;15.94;100.00;97931.47;4878893;29;20045;-77
2021/09/26 07:08:22;;;;;;;15.38;10.48;;;;;;;16.05;100.00;97935.31;4877421;29;20064;-77
2021/09/26 07:10:49;;;;;;;15.63;10.65;;;;;;;16.31;100.00;97937.66;4878422;29;20056;-76
2021/09/26 07:13:16;;;;;;;16.92;10.13;;;;;;;16.42;100.00;97944.25;4861628;29;20045;-77
2021/09/26 07:15:42;;;;;;;21.65;9.88;;;;;;;16.51;100.00;97942.22;4877202;29;20053;-77
2021/09/26 07:18:09;;;;;;;17.10;9.32;;;;;;;16.89;100.00;97940.94;4880355;29;20053;-77
2021/09/26 07:20:40;;;;;;;12.73;8.82;;;;;;;17.09;100.00;97940.75;4879385;29;20056;-77
2021/09/26 07:23:07;;;;;;;17.02;9.90;;;;;;;17.38;100.00;97934.09;4885475;29;20047;-77
2021/09/26 07:25:35;;;;;;;15.68;8.90;;;;;;;17.57;100.00;97941.66;4876776;29;20051;-79
2021/09/26 07:28:03;;;;;;;13.57;8.60;;;;;;;17.77;100.00;97938.66;4882553;29;20048;-79
2021/09/26 07:30:29;;;;;;;12.35;7.10;;;;;;;17.75;100.00;97937.41;4897960;29;20064;-79
2021/09/26 07:32:56;;;;;;;9.07;6.65;;;;;;;17.82;100.00;97926.63;4883824;29;20409;-80
2021/09/26 07:35:23;;;;;;;11.43;7.60;;;;;;;18.00;100.00;97942.34;4884406;29;20140;-79
2021/09/26 07:37:50;;;;;;;15.25;7.70;;;;;;;17.95;100.00;97941.81;4914635;29;20053;-78
2021/09/26 07:40:18;;;;;;;11.52;7.18;;;;;;;17.85;100.00;97951.38;4882758;29;20052;-78
2021/09/26 07:42:45;;;;;;;11.82;7.13;;;;;;;18.19;100.00;97947.09;4897964;29;20044;-78
2021/09/26 07:45:15;;;;;;;12.82;7.30;;;;;;;18.40;100.00;97957.75;4900650;29;20498;-79
2021/09/26 07:47:43;;;;;;;9.60;6.85;;;;;;;18.39;100.00;97948.72;4899878;29;20059;-80
2021/09/26 07:50:11;;;;;;;8.55;6.05;;;;;;;18.68;100.00;97950.16;4900871;29;20095;-80
2021/09/26 07:52:37;;;;;;;9.07;6.20;;;;;;;18.74;100.00;97943.22;4899408;29;20044;-80
2021/09/26 07:55:06;;;;;;;8.68;6.30;;;;;;;19.08;100.00;97947.03;4897973;29;20517;-80
2021/09/26 07:57:33;;;;;;;13.15;6.38;;;;;;;19.22;100.00;97939.09;4891102;29;20506;-80
2021/09/26 08:00:00;;;;;;;19.95;11.98;;;;;;;19.27;100.00;97933.28;4903169;29;20052;-80
2021/09/26 08:02:26;;;;;;;8.80;6.47;;;;;;;19.49;100.00;97939.97;4896796;29;20050;-80
2021/09/26 08:04:53;;;;;;;10.30;5.97;;;;;;;19.76;100.00;97949.88;4881042;29;20044;-79
2021/09/26 08:07:20;;;;;;;12.45;6.00;;;;;;;19.63;100.00;97952.03;4907688;29;20096;-79
2021/09/26 08:09:48;;;;;;;9.98;6.10;;;;;;;19.69;100.00;97944.28;4901109;29;20044;-81
2021/09/26 08:12:14;;;;;;;8.75;5.57;;;;;;;20.13;100.00;97948.13;4867809;29;20096;-80
2021/09/26 08:14:41;;;;;;;9.73;5.50;;;;;;;20.44;100.00;97945.06;4899030;29;20037;-79
2021/09/26 08:17:08;;;;;;;9.80;5.88;;;;;;;20.61;100.00;97945.69;4881190;29;20109;-79
2021/09/26 08:19:36;;;;;;;11.00;5.88;;;;;;;20.70;100.00;97940.72;4898867;29;20044;-79
2021/09/26 08:22:05;;;;;;;8.75;5.68;;;;;;;20.73;100.00;97954.50;4898049;29;20048;-77
2021/09/26 08:24:32;;;;;;;8.10;5.38;;;;;;;20.96;100.00;97957.97;4899191;29;20051;-78
2021/09/26 08:27:01;;;;;;;9.10;4.95;;;;;;;21.31;100.00;97957.63;4896678;29;20209;-78
2021/09/26 08:29:28;;;;;;;7.88;5.30;;;;;;;21.25;100.00;97950.06;4898492;29;20056;-78
2021/09/26 08:31:55;;;;;;;8.63;5.88;;;;;;;21.67;100.00;97950.50;4897308;29;20098;-78
2021/09/26 08:34:22;;;;;;;11.98;5.28;;;;;;;21.89;100.00;97940.47;4896962;29;20071;-79
2021/09/26 08:36:50;;;;;;;8.43;5.15;;;;;;;21.73;100.00;97947.00;4865926;29;20060;-77
2021/09/26 08:39:19;;;;;;;10.57;5.10;;;;;;;22.05;100.00;97943.75;4896123;29;20147;-77
2021/09/26 08:41:50;;;;;;;7.38;4.63;;;;;;;21.98;100.00;97944.50;4880614;29;20104;-78
2021/09/26 08:44:20;;;;;;;5.63;4.40;;;;;;;21.92;100.00;97936.94;4897521;29;20501;-77
2021/09/26 08:46:46;;;;;;;9.07;4.70;;;;;;;22.54;100.00;97941.31;4898317;29;20055;-79
2021/09/26 08:49:15;;;;;;;9.02;5.05;;;;;;;22.46;100.00;97947.97;4898870;29;20497;-79
2021/09/26 08:51:44;;;;;;;8.88;4.80;;;;;;;22.32;100.00;97932.13;4896134;29;20040;-79
2021/09/26 08:54:12;;;;;;;6.55;4.43;;;;;;;22.70;100.00;97932.75;4898115;29;20045;-79
2021/09/26 08:56:40;;;;;;;6.18;4.65;;;;;;;22.67;100.00;97930.78;4897893;29;20413;-79
2021/09/26 08:59:07;;;;;;;9.02;4.47;;;;;;;22.69;100.00;97944.97;4897876;29;20053;-79
2021/09/26 09:01:33;;;;;;;12.85;4.68;;;;;;;22.90;100.00;97932.06;4865684;29;20059;-80
2021/09/26 09:04:00;;;;;;;7.03;4.57;;;;;;;23.68;100.00;97931.50;4881130;29;20128;-79
2021/09/26 09:06:47;;;;;;;8.45;4.75;;;;;;;23.85;100.00;97925.97;4898004;29;20059;-78
2021/09/26 09:09:20;;;;;;;7.95;4.45;;;;;;;23.85;100.00;97930.72;4898132;29;20529;-80
2021/09/26 09:12:08;;;;;;;4.43;3.90;;;;;;;23.87;100.00;97929.16;4895384;29;20120;-79
2021/09/26 09:14:57;;;;;;;7.43;4.55;;;;;;;23.95;100.00;97938.25;4865281;29;20052;-80
2021/09/26 09:17:36;;;;;;;7.15;4.13;;;;;;;24.13;100.00;97930.75;4895915;29;20049;-78
2021/09/26 09:20:23;;;;;;;7.10;4.38;;;;;;;24.10;100.00;97931.53;4896569;29;20048;-79
2021/09/26 09:22:53;;;;;;;5.80;3.88;;;;;;;24.20;100.00;97927.19;4897533;29;20052;-79
2021/09/26 09:25:35;;;;;;;7.00;3.70;;;;;;;24.69;100.00;97924.31;4880586;29;20067;-78
2021/09/26 09:28:04;;;;;;;5.40;4.05;;;;;;;24.87;100.00;97929.81;4865015;29;20048;-80
2021/09/26 09:30:53;;;;;;;11.77;6.18;;;;;;;24.82;100.00;97924.69;4881029;29;20060;-79
2021/09/26 09:33:22;;;;;;;5.95;4.07;;;;;;;25.22;100.00;97927.66;4897214;29;20249;-79
2021/09/26 09:35:54;;;;;;;8.98;3.63;;;;;;;25.51;100.00;97936.63;4880983;29;20053;-79
2021/09/26 09:38:29;;;;;;;7.65;3.85;;;;;;;25.77;100.00;97930.50;4899376;29;20541;-80
2021/09/26 09:40:59;;;;;;;6.88;3.47;;;;;;;25.46;100.00;97927.94;4898283;29;20450;-79
2021/09/26 09:43:29;;;;;;;10.75;3.90;;;;;;;25.71;100.00;97931.34;4896040;29;20088;-79
2021/09/26 09:45:59;;;;;;;4.30;3.35;;;;;;;25.81;95.27;97916.63;4894834;29;20307;-79
2021/09/26 09:48:29;;;;;;;4.57;3.75;;;;;;;25.83;100.00;97923.34;4895719;29;20044;-79
2021/09/26 09:50:56;;;;;;;5.10;3.60;;;;;;;26.32;91.19;97922.13;4880627;29;20059;-78
2021/09/26 09:53:29;;;;;;;6.10;3.78;;;;;;;26.78;84.06;97918.09;4896850;29;20100;-79
2021/09/26 09:56:06;;;;;;;7.60;4.40;;;;;;;26.96;79.26;97911.13;4896083;29;20132;-79
2021/09/26 09:58:36;;;;;;;7.82;4.53;;;;;;;27.06;75.06;97920.53;4896397;29;20120;-80
2021/09/26 10:01:15;;;;;;;6.05;3.40;;;;;;;28.02;75.35;97919.94;4896569;29;20056;-80
2021/09/26 10:03:48;;;;;;;4.88;3.33;;;;;;;28.16;71.28;97914.13;4894765;29;20148;-79
2021/09/26 10:06:21;;;;;;;5.68;3.53;;;;;;;28.70;61.12;97911.97;4879035;29;20055;-78
2021/09/26 10:08:47;;;;;;;4.55;3.38;;;;;;;28.88;58.06;97912.41;4879514;29;20053;-79
2021/09/26 10:11:24;;;;;;;4.97;3.80;;;;;;;29.92;52.51;97907.69;4879417;29;20063;-79
2021/09/26 10:13:50;;;;;;;6.28;3.22;;;;;;;29.84;51.54;97914.69;4894606;29;20429;-78
2021/09/26 10:16:18;;;;;;;4.63;3.17;;;;;;;31.10;47.78;97906.94;4864050;29;20063;-79
2021/09/26 10:18:45;;;;;;;4.20;3.22;;;;;;;30.77;45.40;97911.84;4864373;29;20060;-78
2021/09/26 10:21:13;;;;;;;4.70;3.30;;;;;;;32.62;42.90;97902.06;4879755;29;20048;-79
2021/09/26 10:23:45;;;;;;;6.10;4.07;;;;;;;32.50;45.00;97900.03;4895959;29;20420;-79
2021/09/26 10:26:15;;;;;;;5.15;3.83;;;;;;;34.08;40.50;97901.63;4895180;29;20048;-80
2021/09/26 10:28:43;;;;;;;7.75;3.40;;;;;;;33.93;39.47;97892.19;4895771;29;20107;-79
2021/09/26 10:31:11;;;;;;;3.53;3.20;;;;;;;33.91;38.84;97894.69;4894848;29;20060;-78
2021/09/26 10:33:40;;;;;;;7.70;3.38;;;;;;;32.73;42.95;97882.03;4896516;29;20053;-79
2021/09/26 10:36:09;;;;;;;5.93;3.25;;;;;;;33.23;41.28;97884.56;4900646;29;20032;-79
2021/09/26 10:38:38;;;;;;;4.00;3.15;;;;;;;35.27;38.34;97886.31;4905583;29;20048;-80
2021/09/26 10:41:09;;;;;;;7.05;3.22;;;;;;;35.90;36.09;97884.50;4899169;29;20727;-79
2021/09/26 10:43:35;;;;;;;3.40;2.95;;;;;;;35.21;37.56;97882.56;4897294;29;20520;-79
2021/09/26 10:46:18;;;;;;;5.13;3.00;;;;;;;35.09;36.49;97885.56;4897199;29;20048;-79
2021/09/26 10:49:00;;;;;;;5.05;3.30;;;;;;;35.52;36.67;97876.66;4895988;29;20483;-80
2021/09/26 10:51:56;;;;;;;7.20;3.20;;;;;;;36.47;35.16;97868.34;4880537;29;20059;-78
2021/09/26 10:54:23;;;;;;;5.20;3.20;;;;;;;38.39;31.87;97876.97;4880045;29;20063;-79
2021/09/26 10:56:52;;;;;;;4.00;2.90;;;;;;;36.48;33.57;97869.91;4879381;29;20139;-80
2021/09/26 10:59:19;;;;;;;5.68;3.03;;;;;;;36.14;35.62;97865.59;4895913;29;20063;-79
2021/09/26 11:01:46;;;;;;;4.07;3.05;;;;;;;34.00;37.72;97865.81;4894635;29;20059;-79
2021/09/26 11:04:14;;;;;;;5.18;3.00;;;;;;;33.62;39.94;97878.22;4878933;29;20768;-80
2021/09/26 11:06:41;;;;;;;5.78;3.08;;;;;;;30.84;44.10;97868.94;4895144;29;20058;-79
2021/09/26 11:09:10;;;;;;;6.45;3.38;;;;;;;30.56;46.51;97880.94;4879435;29;20055;-79
2021/09/26 11:11:48;;;;;;;3.17;2.85;;;;;;;30.21;44.71;97880.63;4879982;29;20056;-79
2021/09/26 11:14:16;;;;;;;9.02;3.33;;;;;;;30.03;45.91;97876.72;4894887;29;20040;-78
2021/09/26 11:16:51;;;;;;;3.90;3.05;;;;;;;29.94;50.28;97887.75;4862616;29;20045;-79
2021/09/26 11:19:30;;;;;;;7.50;4.15;;;;;;;28.77;54.40;97889.53;4879481;29;20049;-79
2021/09/26 11:22:07;;;;;;;6.10;3.40;;;;;;;29.20;52.54;97887.44;4895593;29;20045;-78
2021/09/26 11:24:37;;;;;;;4.93;3.35;;;;;;;28.92;54.23;97888.81;4898061;29;20069;-80
2021/09/26 11:27:17;;;;;;;4.78;3.83;;;;;;;31.17;48.17;97883.56;4878654;29;20657;-80
2021/09/26 11:29:44;;;;;;;3.75;3.28;;;;;;;33.33;39.23;97876.94;4879150;29;20060;-81